sensor_id;sensor_type;location;lat;lon;timestamp;pressure;altitude;pressure_sealevel;temperature;humidity
24230;BME280;12362;50.004;8.006;2024-01-15T00:01:13;99598.78;;;-0.86;100.00
24230;BME280;12362;50.004;8.006;2024-01-15T00:03:38;99591.19;;;-0.89;100.00
24230;BME280;12362;50.004;8.006;2024-01-15T00:06:04;99594.50;;;-0.84;100.00
24230;BME280;12362;50.004;8.006;2024-01-15T00:08:30;99591.94;;;-0.84;100.00
24230;BME280;12362;50.004;8.006;2024-01-15T00:10:55;99582.75;;;-0.93;100.00
24230;BME280;12362;50.004;8.006;2024-01-15T00:13:21;99583.56;;;-0.91;100.00
24230;BME280;12362;50.004;8.006;2024-01-15T00:15:46;99570.72;;;-0.83;100.00
24230;BME280;12362;50.004;8.006;2024-01-15T00:18:11;99569.75;;;-0.78;100.00
24230;BME280;12362;50.004;8.006;2024-01-15T00:20:37;99569.75;;;-0.78;100.00
24230;BME280;12362;50.004;8.006;2024-01-15T00:23:03;99575.63;;;-0.74;100.00
24230;BME280;12362;50.004;8.006;2024-01-15T00:25:28;99571.28;;;-0.68;100.00
24230;BME280;12362;50.004;8.006;2024-01-15T00:27:59;99568.72;;;-0.66;100.00
24230;BME280;12362;50.004;8.006;2024-01-15T00:30:25;99565.34;;;-0.68;100.00
24230;BME280;12362;50.004;8.006;2024-01-15T00:32:51;99559.38;;;-0.66;100.00
24230;BME280;12362;50.004;8.006;2024-01-15T00:35:16;99554.09;;;-0.57;100.00
24230;BME280;12362;50.004;8.006;2024-01-15T00:37:42;99545.72;;;-0.63;100.00
24230;BME280;12362;50.004;8.006;2024-01-15T00:40:07;99551.81;;;-0.70;100.00
24230;BME280;12362;50.004;8.006;2024-01-15T00:42:34;99551.81;;;-0.70;100.00
24230;BME280;12362;50.004;8.006;2024-01-15T00:44:59;99543.13;;;-0.60;100.00
24230;BME280;12362;50.004;8.006;2024-01-15T00:47:25;99546.63;;;-0.66;100.00
24230;BME280;12362;50.004;8.006;2024-01-15T00:49:50;99549.13;;;-0.64;100.00
24230;BME280;12362;50.004;8.006;2024-01-15T00:52:16;99547.53;;;-0.68;100.00
24230;BME280;12362;50.004;8.006;2024-01-15T00:54:42;99551.72;;;-0.66;100.00
24230;BME280;12362;50.004;8.006;2024-01-15T00:57:07;99550.03;;;-0.67;100.00
24230;BME280;12362;50.004;8.006;2024-01-15T00:59:32;99549.22;;;-0.69;100.00
24230;BME280;12362;50.004;8.006;2024-01-15T01:01:58;99544.09;;;-0.67;100.00
24230;BME280;12362;50.004;8.006;2024-01-15T01:04:23;99539.66;;;-0.56;100.00
24230;BME280;12362;50.004;8.006;2024-01-15T01:06:49;99544.75;;;-0.56;100.00
24230;BME280;12362;50.004;8.006;2024-01-15T01:09:14;99540.44;;;-0.53;100.00
24230;BME280;12362;50.004;8.006;2024-01-15T01:11:40;99545.56;;;-0.54;100.00
24230;BME280;12362;50.004;8.006;2024-01-15T01:14:05;99539.53;;;-0.50;100.00
24230;BME280;12362;50.004;8.006;2024-01-15T01:16:31;99545.63;;;-0.59;100.00
24230;BME280;12362;50.004;8.006;2024-01-15T01:19:04;99534.47;;;-0.52;100.00
24230;BME280;12362;50.004;8.006;2024-01-15T01:21:29;99542.91;;;-0.48;100.00
24230;BME280;12362;50.004;8.006;2024-01-15T01:23:55;99541.25;;;-0.51;100.00
24230;BME280;12362;50.004;8.006;2024-01-15T01:26:20;99534.25;;;-0.41;100.00
24230;BME280;12362;50.004;8.006;2024-01-15T01:28:46;99533.56;;;-0.48;100.00
24230;BME280;12362;50.004;8.006;2024-01-15T01:31:11;99531.97;;;-0.55;100.00
24230;BME280;12362;50.004;8.006;2024-01-15T01:33:38;99533.56;;;-0.48;100.00
24230;BME280;12362;50.004;8.006;2024-01-15T01:36:07;99539.47;;;-0.47;100.00
24230;BME280;12362;50.004;8.006;2024-01-15T01:38:33;99538.66;;;-0.49;100.00
24230;BME280;12362;50.004;8.006;2024-01-15T01:40:58;99532.84;;;-0.56;100.00
24230;BME280;12362;50.004;8.006;2024-01-15T01:43:24;99535.28;;;-0.50;100.00
24230;BME280;12362;50.004;8.006;2024-01-15T01:45:49;99543.66;;;-0.45;100.00
24230;BME280;12362;50.004;8.006;2024-01-15T01:48:15;99547.09;;;-0.46;100.00
24230;BME280;12362;50.004;8.006;2024-01-15T01:50:40;99543.53;;;-0.36;100.00
24230;BME280;12362;50.004;8.006;2024-01-15T01:53:06;99540.06;;;-0.33;100.00
24230;BME280;12362;50.004;8.006;2024-01-15T01:55:32;99537.53;;;-0.33;100.00
24230;BME280;12362;50.004;8.006;2024-01-15T01:58:00;99535.69;;;-0.27;100.00
24230;BME280;12362;50.004;8.006;2024-01-15T02:00:26;99530.50;;;-0.22;100.00
24230;BME280;12362;50.004;8.006;2024-01-15T02:02:51;99531.31;;;-0.20;100.00
24230;BME280;12362;50.004;8.006;2024-01-15T02:05:18;99535.56;;;-0.21;100.00
24230;BME280;12362;50.004;8.006;2024-01-15T02:07:45;99530.34;;;-0.15;100.00
24230;BME280;12362;50.004;8.006;2024-01-15T02:10:10;99522.69;;;-0.15;100.00
24230;BME280;12362;50.004;8.006;2024-01-15T02:12:36;99526.13;;;-0.16;100.00
24230;BME280;12362;50.004;8.006;2024-01-15T02:15:02;99523.50;;;-0.13;100.00
24230;BME280;12362;50.004;8.006;2024-01-15T02:17:27;99506.59;;;-0.17;100.00
24230;BME280;12362;50.004;8.006;2024-01-15T02:19:53;99501.53;;;-0.18;100.00
24230;BME280;12362;50.004;8.006;2024-01-15T02:22:18;99510.03;;;-0.19;100.00
24230;BME280;12362;50.004;8.006;2024-01-15T02:24:44;99516.03;;;-0.22;100.00
24230;BME280;12362;50.004;8.006;2024-01-15T02:27:09;99505.91;;;-0.26;100.00
24230;BME280;12362;50.004;8.006;2024-01-15T02:29:35;99507.66;;;-0.27;100.00
24230;BME280;12362;50.004;8.006;2024-01-15T02:32:04;99508.41;;;-0.23;100.00
24230;BME280;12362;50.004;8.006;2024-01-15T02:34:32;99502.50;;;-0.24;100.00
24230;BME280;12362;50.004;8.006;2024-01-15T02:36:57;99499.03;;;-0.23;100.00
24230;BME280;12362;50.004;8.006;2024-01-15T02:39:23;99497.31;;;-0.21;100.00
24230;BME280;12362;50.004;8.006;2024-01-15T02:41:48;99506.78;;;-0.26;100.00
24230;BME280;12362;50.004;8.006;2024-01-15T02:44:14;99496.69;;;-0.32;100.00
24230;BME280;12362;50.004;8.006;2024-01-15T02:46:39;99504.47;;;-0.38;100.00
24230;BME280;12362;50.004;8.006;2024-01-15T02:49:05;99506.91;;;-0.33;100.00
24230;BME280;12362;50.004;8.006;2024-01-15T02:51:30;99505.25;;;-0.34;100.00
24230;BME280;12362;50.004;8.006;2024-01-15T02:53:56;99512.13;;;-0.39;100.00
24230;BME280;12362;50.004;8.006;2024-01-15T02:56:21;99507.03;;;-0.38;100.00
24230;BME280;12362;50.004;8.006;2024-01-15T02:58:47;99501.94;;;-0.39;100.00
24230;BME280;12362;50.004;8.006;2024-01-15T03:01:12;99498.56;;;-0.41;100.00
24230;BME280;12362;50.004;8.006;2024-01-15T03:03:40;99505.25;;;-0.34;100.00
24230;BME280;12362;50.004;8.006;2024-01-15T03:06:05;99501.81;;;-0.33;100.00
24230;BME280;12362;50.004;8.006;2024-01-15T03:08:31;99506.31;;;-0.46;100.00
24230;BME280;12362;50.004;8.006;2024-01-15T03:10:56;99496.81;;;-0.38;100.00
24230;BME280;12362;50.004;8.006;2024-01-15T03:13:22;99503.66;;;-0.41;100.00
24230;BME280;12362;50.004;8.006;2024-01-15T03:15:47;99494.28;;;-0.39;100.00
24230;BME280;12362;50.004;8.006;2024-01-15T03:18:13;99498.41;;;-0.34;100.00
24230;BME280;12362;50.004;8.006;2024-01-15T03:20:38;99499.22;;;-0.30;100.00
24230;BME280;12362;50.004;8.006;2024-01-15T03:23:04;99500.03;;;-0.30;100.00
24230;BME280;12362;50.004;8.006;2024-01-15T03:25:30;99496.53;;;-0.24;100.00
24230;BME280;12362;50.004;8.006;2024-01-15T03:27:55;99499.91;;;-0.22;100.00
24230;BME280;12362;50.004;8.006;2024-01-15T03:30:21;99498.22;;;-0.23;100.00
24230;BME280;12362;50.004;8.006;2024-01-15T03:32:46;99497.41;;;-0.25;100.00
24230;BME280;12362;50.004;8.006;2024-01-15T03:35:12;99496.44;;;-0.20;100.00
24230;BME280;12362;50.004;8.006;2024-01-15T03:37:38;99486.13;;;-0.15;100.00
24230;BME280;12362;50.004;8.006;2024-01-15T03:40:04;99484.44;;;-0.15;100.00
24230;BME280;12362;50.004;8.006;2024-01-15T03:42:29;99490.31;;;-0.11;100.00
24230;BME280;12362;50.004;8.006;2024-01-15T03:44:55;99482.72;;;-0.13;100.00
24230;BME280;12362;50.004;8.006;2024-01-15T03:47:21;99473.28;;;-0.11;100.00
24230;BME280;12362;50.004;8.006;2024-01-15T03:49:46;99469.75;;;-0.05;100.00
24230;BME280;12362;50.004;8.006;2024-01-15T03:52:11;99466.34;;;-0.04;100.00
24230;BME280;12362;50.004;8.006;2024-01-15T03:54:37;99462.06;;;-0.03;100.00
24230;BME280;12362;50.004;8.006;2024-01-15T03:57:03;99457.22;;;-0.13;100.00
24230;BME280;12362;50.004;8.006;2024-01-15T03:59:28;99454.59;;;-0.11;100.00
24230;BME280;12362;50.004;8.006;2024-01-15T04:01:54;99459.50;;;-0.03;100.00
24230;BME280;12362;50.004;8.006;2024-01-15T04:04:20;99455.38;;;-0.06;100.00
24230;BME280;12362;50.004;8.006;2024-01-15T04:06:45;99456.94;;;-0.03;100.00
24230;BME280;12362;50.004;8.006;2024-01-15T04:09:14;99459.44;;;0.00;100.00
24230;BME280;12362;50.004;8.006;2024-01-15T04:11:40;99462.03;;;-0.01;100.00
24230;BME280;12362;50.004;8.006;2024-01-15T04:14:05;99457.59;;;0.07;100.00
24230;BME280;12362;50.004;8.006;2024-01-15T04:16:31;99458.31;;;0.13;100.00
24230;BME280;12362;50.004;8.006;2024-01-15T04:18:56;99456.56;;;0.14;100.00
24230;BME280;12362;50.004;8.006;2024-01-15T04:21:22;99458.25;;;0.16;100.00
24230;BME280;12362;50.004;8.006;2024-01-15T04:23:48;99467.59;;;0.16;100.00
24230;BME280;12362;50.004;8.006;2024-01-15T04:26:13;99448.03;;;0.16;100.00
24230;BME280;12362;50.004;8.006;2024-01-15T04:28:39;99447.94;;;0.21;100.00
24230;BME280;12362;50.004;8.006;2024-01-15T04:31:04;99447.06;;;0.22;100.00
24230;BME280;12362;50.004;8.006;2024-01-15T04:33:30;99448.63;;;0.27;100.00
24230;BME280;12362;50.004;8.006;2024-01-15T04:35:55;99446.88;;;0.29;100.00
24230;BME280;12362;50.004;8.006;2024-01-15T04:38:21;99436.53;;;0.35;100.00
24230;BME280;12362;50.004;8.006;2024-01-15T04:40:47;99442.44;;;0.37;100.00
24230;BME280;12362;50.004;8.006;2024-01-15T04:43:12;99432.25;;;0.36;100.00
24230;BME280;12362;50.004;8.006;2024-01-15T04:45:38;99446.56;;;0.43;100.00
24230;BME280;12362;50.004;8.006;2024-01-15T04:48:03;99448.53;;;0.32;100.00
24230;BME280;12362;50.004;8.006;2024-01-15T04:50:29;99429.81;;;0.31;100.00
24230;BME280;12362;50.004;8.006;2024-01-15T04:52:54;99433.06;;;0.38;100.00
24230;BME280;12362;50.004;8.006;2024-01-15T04:55:20;99429.69;;;0.36;100.00
24230;BME280;12362;50.004;8.006;2024-01-15T04:57:46;99425.56;;;0.30;100.00
24230;BME280;12362;50.004;8.006;2024-01-15T05:00:12;99424.69;;;0.33;100.00
24230;BME280;12362;50.004;8.006;2024-01-15T05:02:38;99423.75;;;0.35;100.00
24230;BME280;12362;50.004;8.006;2024-01-15T05:05:03;99421.09;;;0.40;100.00
24230;BME280;12362;50.004;8.006;2024-01-15T05:07:30;99422.00;;;0.37;100.00
24230;BME280;12362;50.004;8.006;2024-01-15T05:09:55;99417.72;;;0.39;100.00
24230;BME280;12362;50.004;8.006;2024-01-15T05:12:21;99420.22;;;0.41;100.00
24230;BME280;12362;50.004;8.006;2024-01-15T05:14:48;99420.16;;;0.44;100.00
24230;BME280;12362;50.004;8.006;2024-01-15T05:17:13;99418.44;;;0.44;100.00
24230;BME280;12362;50.004;8.006;2024-01-15T05:19:39;99415.88;;;0.44;100.00
24230;BME280;12362;50.004;8.006;2024-01-15T05:22:04;99404.66;;;0.51;100.00
24230;BME280;12362;50.004;8.006;2024-01-15T05:24:30;99403.00;;;0.49;100.00
24230;BME280;12362;50.004;8.006;2024-01-15T05:26:55;99413.22;;;0.49;100.00
24230;BME280;12362;50.004;8.006;2024-01-15T05:29:21;99408.09;;;0.50;100.00
24230;BME280;12362;50.004;8.006;2024-01-15T05:31:46;99407.09;;;0.54;100.00
24230;BME280;12362;50.004;8.006;2024-01-15T05:34:12;99413.06;;;0.55;100.00
24230;BME280;12362;50.004;8.006;2024-01-15T05:36:37;99417.25;;;0.57;100.00
24230;BME280;12362;50.004;8.006;2024-01-15T05:39:03;99410.59;;;0.52;100.00
24230;BME280;12362;50.004;8.006;2024-01-15T05:41:29;99409.66;;;0.56;100.00
24230;BME280;12362;50.004;8.006;2024-01-15T05:43:54;99413.91;;;0.55;100.00
24230;BME280;12362;50.004;8.006;2024-01-15T05:46:20;99408.72;;;0.58;100.00
24230;BME280;12362;50.004;8.006;2024-01-15T05:48:45;99402.69;;;0.61;100.00
24230;BME280;12362;50.004;8.006;2024-01-15T05:51:12;99410.28;;;0.64;100.00
24230;BME280;12362;50.004;8.006;2024-01-15T05:53:37;99417.94;;;0.64;100.00
24230;BME280;12362;50.004;8.006;2024-01-15T05:56:06;99405.19;;;0.64;100.00
24230;BME280;12362;50.004;8.006;2024-01-15T05:58:31;99404.50;;;0.57;100.00
24230;BME280;12362;50.004;8.006;2024-01-15T06:00:57;99410.66;;;0.49;100.00
24230;BME280;12362;50.004;8.006;2024-01-15T06:03:23;99410.88;;;0.41;100.00
24230;BME280;12362;50.004;8.006;2024-01-15T06:05:49;99420.00;;;0.50;100.00
24230;BME280;12362;50.004;8.006;2024-01-15T06:08:14;99408.22;;;0.44;100.00
24230;BME280;12362;50.004;8.006;2024-01-15T06:10:40;99403.38;;;0.34;100.00
24230;BME280;12362;50.004;8.006;2024-01-15T06:13:05;99408.44;;;0.35;100.00
24230;BME280;12362;50.004;8.006;2024-01-15T06:15:31;99401.72;;;0.33;100.00
24230;BME280;12362;50.004;8.006;2024-01-15T06:17:56;99404.22;;;0.34;100.00
24230;BME280;12362;50.004;8.006;2024-01-15T06:20:22;99406.72;;;0.36;100.00
24230;BME280;12362;50.004;8.006;2024-01-15T06:22:47;99406.72;;;0.36;100.00
24230;BME280;12362;50.004;8.006;2024-01-15T06:25:13;99405.31;;;0.24;100.00
24230;BME280;12362;50.004;8.006;2024-01-15T06:27:38;99409.50;;;0.27;100.00
24230;BME280;12362;50.004;8.006;2024-01-15T06:30:04;99406.25;;;0.20;100.00
24230;BME280;12362;50.004;8.006;2024-01-15T06:32:30;99413.84;;;0.23;100.00
24230;BME280;12362;50.004;8.006;2024-01-15T06:34:55;99407.94;;;0.21;100.00
24230;BME280;12362;50.004;8.006;2024-01-15T06:37:21;99410.66;;;0.14;100.00
24230;BME280;12362;50.004;8.006;2024-01-15T06:39:46;99403.69;;;0.22;100.00
24230;BME280;12362;50.004;8.006;2024-01-15T06:42:12;99402.81;;;0.21;100.00
24230;BME280;12362;50.004;8.006;2024-01-15T06:44:38;99401.25;;;0.17;100.00
24230;BME280;12362;50.004;8.006;2024-01-15T06:47:05;99400.38;;;0.17;100.00
24230;BME280;12362;50.004;8.006;2024-01-15T06:49:31;99399.34;;;0.24;100.00
24230;BME280;12362;50.004;8.006;2024-01-15T06:51:56;99398.53;;;0.23;100.00
24230;BME280;12362;50.004;8.006;2024-01-15T06:54:22;99391.69;;;0.24;100.00
24230;BME280;12362;50.004;8.006;2024-01-15T06:56:49;99400.16;;;0.27;100.00
24230;BME280;12362;50.004;8.006;2024-01-15T06:59:14;99394.06;;;0.31;100.00
24230;BME280;12362;50.004;8.006;2024-01-15T07:01:39;99393.06;;;0.38;100.00
24230;BME280;12362;50.004;8.006;2024-01-15T07:04:05;99392.22;;;0.38;100.00
24230;BME280;12362;50.004;8.006;2024-01-15T07:06:31;99394.69;;;0.41;100.00
24230;BME280;12362;50.004;8.006;2024-01-15T07:08:56;99394.69;;;0.41;100.00
24230;BME280;12362;50.004;8.006;2024-01-15T07:11:23;99392.19;;;0.39;100.00
24230;BME280;12362;50.004;8.006;2024-01-15T07:13:48;99389.66;;;0.38;100.00
24230;BME280;12362;50.004;8.006;2024-01-15T07:16:14;99386.16;;;0.42;100.00
24230;BME280;12362;50.004;8.006;2024-01-15T07:18:40;99386.13;;;0.43;100.00
24230;BME280;12362;50.004;8.006;2024-01-15T07:21:06;99391.16;;;0.46;100.00
24230;BME280;12362;50.004;8.006;2024-01-15T07:23:32;99384.31;;;0.48;100.00
24230;BME280;12362;50.004;8.006;2024-01-15T07:25:57;99384.34;;;0.47;100.00
24230;BME280;12362;50.004;8.006;2024-01-15T07:28:23;99380.88;;;0.48;100.00
24230;BME280;12362;50.004;8.006;2024-01-15T07:30:48;99384.31;;;0.48;100.00
24230;BME280;12362;50.004;8.006;2024-01-15T07:33:14;99380.88;;;0.49;100.00
24230;BME280;12362;50.004;8.006;2024-01-15T07:35:40;99380.88;;;0.49;100.00
24230;BME280;12362;50.004;8.006;2024-01-15T07:38:05;99383.34;;;0.52;100.00
24230;BME280;12362;50.004;8.006;2024-01-15T07:40:31;99382.47;;;0.53;100.00
24230;BME280;12362;50.004;8.006;2024-01-15T07:42:56;99373.03;;;0.55;100.00
24230;BME280;12362;50.004;8.006;2024-01-15T07:45:22;99375.56;;;0.57;100.00
24230;BME280;12362;50.004;8.006;2024-01-15T07:47:47;99372.94;;;0.60;100.00
24230;BME280;12362;50.004;8.006;2024-01-15T07:50:13;99374.72;;;0.58;100.00
24230;BME280;12362;50.004;8.006;2024-01-15T07:52:40;99388.97;;;0.65;100.00
24230;BME280;12362;50.004;8.006;2024-01-15T07:55:07;99391.72;;;0.57;100.00
24230;BME280;12362;50.004;8.006;2024-01-15T07:57:33;99393.34;;;0.61;100.00
24230;BME280;12362;50.004;8.006;2024-01-15T07:59:58;99400.00;;;0.67;100.00
24230;BME280;12362;50.004;8.006;2024-01-15T08:02:24;99400.94;;;0.64;100.00
24230;BME280;12362;50.004;8.006;2024-01-15T08:04:49;99399.94;;;0.70;100.00
24230;BME280;12362;50.004;8.006;2024-01-15T08:07:15;99396.56;;;0.68;100.00
24230;BME280;12362;50.004;8.006;2024-01-15T08:09:40;99397.38;;;0.70;100.00
24230;BME280;12362;50.004;8.006;2024-01-15T08:12:11;99389.59;;;0.74;100.00
24230;BME280;12362;50.004;8.006;2024-01-15T08:14:38;99384.31;;;0.80;100.00
24230;BME280;12362;50.004;8.006;2024-01-15T08:17:03;99380.13;;;0.78;100.00
24230;BME280;12362;50.004;8.006;2024-01-15T08:19:29;99374.75;;;0.88;100.00
24230;BME280;12362;50.004;8.006;2024-01-15T08:21:55;99364.00;;;0.76;100.00
24230;BME280;12362;50.004;8.006;2024-01-15T08:24:23;99363.94;;;0.79;100.00
24230;BME280;12362;50.004;8.006;2024-01-15T08:26:48;99360.38;;;0.84;100.00
24230;BME280;12362;50.004;8.006;2024-01-15T08:29:14;99355.88;;;0.92;100.00
24230;BME280;12362;50.004;8.006;2024-01-15T08:31:39;99353.38;;;0.90;100.00
24230;BME280;12362;50.004;8.006;2024-01-15T08:34:05;99352.59;;;0.88;100.00
24230;BME280;12362;50.004;8.006;2024-01-15T08:36:33;99360.25;;;0.88;100.00
24230;BME280;12362;50.004;8.006;2024-01-15T08:39:00;99361.50;;;1.04;100.00
24230;BME280;12362;50.004;8.006;2024-01-15T08:41:26;99354.81;;;1.00;100.00
24230;BME280;12362;50.004;8.006;2024-01-15T08:43:51;99358.19;;;1.01;100.00
24230;BME280;12362;50.004;8.006;2024-01-15T08:46:18;99359.31;;;0.91;100.00
24230;BME280;12362;50.004;8.006;2024-01-15T08:48:43;99362.47;;;1.00;100.00
24230;BME280;12362;50.004;8.006;2024-01-15T08:51:09;99359.03;;;1.01;100.00
24230;BME280;12362;50.004;8.006;2024-01-15T08:53:34;99367.63;;;0.99;100.00
24230;BME280;12362;50.004;8.006;2024-01-15T08:56:00;99375.44;;;0.94;100.00
24230;BME280;12362;50.004;8.006;2024-01-15T08:58:25;99375.31;;;0.99;100.00
24230;BME280;12362;50.004;8.006;2024-01-15T09:00:51;99382.91;;;1.00;100.00
24230;BME280;12362;50.004;8.006;2024-01-15T09:03:17;99388.78;;;1.04;100.00
24230;BME280;12362;50.004;8.006;2024-01-15T09:05:43;99396.31;;;1.08;100.00
24230;BME280;12362;50.004;8.006;2024-01-15T09:08:08;99398.97;;;1.05;100.00
24230;BME280;12362;50.004;8.006;2024-01-15T09:10:34;99388.63;;;1.10;100.00
24230;BME280;12362;50.004;8.006;2024-01-15T09:12:59;99391.25;;;1.07;100.00
24230;BME280;12362;50.004;8.006;2024-01-15T09:15:25;99400.59;;;1.08;100.00
24230;BME280;12362;50.004;8.006;2024-01-15T09:17:51;99399.03;;;1.02;100.00
24230;BME280;12362;50.004;8.006;2024-01-15T09:20:16;99404.16;;;1.02;100.00
24230;BME280;12362;50.004;8.006;2024-01-15T09:22:42;99396.38;;;1.07;100.00
24230;BME280;12362;50.004;8.006;2024-01-15T09:25:08;99386.00;;;1.11;100.00
24230;BME280;12362;50.004;8.006;2024-01-15T09:27:37;99384.94;;;1.20;100.00
24230;BME280;12362;50.004;8.006;2024-01-15T09:30:03;99384.78;;;1.24;100.00
24230;BME280;12362;50.004;8.006;2024-01-15T09:32:30;99382.19;;;1.26;100.00
24230;BME280;12362;50.004;8.006;2024-01-15T09:34:55;99389.16;;;1.21;100.00
24230;BME280;12362;50.004;8.006;2024-01-15T09:37:21;99383.88;;;1.27;100.00
24230;BME280;12362;50.004;8.006;2024-01-15T09:39:46;99387.28;;;1.26;100.00
24230;BME280;12362;50.004;8.006;2024-01-15T09:42:13;99377.19;;;1.23;100.00
24230;BME280;12362;50.004;8.006;2024-01-15T09:44:39;99372.75;;;1.29;100.00
24230;BME280;12362;50.004;8.006;2024-01-15T09:47:06;99365.69;;;1.37;100.00
24230;BME280;12362;50.004;8.006;2024-01-15T09:49:32;99365.06;;;1.29;100.00
24230;BME280;12362;50.004;8.006;2024-01-15T09:51:58;99373.88;;;1.48;100.00
24230;BME280;12362;50.004;8.006;2024-01-15T09:54:23;99370.16;;;1.58;100.00
24230;BME280;12362;50.004;8.006;2024-01-15T09:56:49;99372.44;;;1.67;100.00
24230;BME280;12362;50.004;8.006;2024-01-15T09:59:19;99367.09;;;1.75;100.00
24230;BME280;12362;50.004;8.006;2024-01-15T10:01:45;99369.53;;;1.79;100.00
24230;BME280;12362;50.004;8.006;2024-01-15T10:04:13;99369.66;;;1.75;100.00
24230;BME280;12362;50.004;8.006;2024-01-15T10:06:39;99369.72;;;1.73;100.00
24230;BME280;12362;50.004;8.006;2024-01-15T10:09:07;99366.59;;;1.64;100.00
24230;BME280;12362;50.004;8.006;2024-01-15T10:11:33;99356.72;;;1.79;100.00
24230;BME280;12362;50.004;8.006;2024-01-15T10:13:58;99353.63;;;1.70;100.00
24230;BME280;12362;50.004;8.006;2024-01-15T10:16:24;99348.38;;;1.74;100.00
24230;BME280;12362;50.004;8.006;2024-01-15T10:18:50;99344.69;;;1.82;100.00
24230;BME280;12362;50.004;8.006;2024-01-15T10:21:16;99341.94;;;1.88;100.00
24230;BME280;12362;50.004;8.006;2024-01-15T10:23:41;99339.16;;;1.96;100.00
24230;BME280;12362;50.004;8.006;2024-01-15T10:26:07;99340.44;;;2.09;100.00
24230;BME280;12362;50.004;8.006;2024-01-15T10:28:33;99335.22;;;1.86;100.00
24230;BME280;12362;50.004;8.006;2024-01-15T10:31:00;99339.16;;;1.96;100.00
24230;BME280;12362;50.004;8.006;2024-01-15T10:33:26;99334.69;;;2.02;100.00
24230;BME280;12362;50.004;8.006;2024-01-15T10:35:59;99336.59;;;1.96;100.00
24230;BME280;12362;50.004;8.006;2024-01-15T10:38:25;99328.53;;;2.08;100.00
24230;BME280;12362;50.004;8.006;2024-01-15T10:40:52;99315.53;;;1.88;100.00
24230;BME280;12362;50.004;8.006;2024-01-15T10:43:18;99307.56;;;1.97;100.00
24230;BME280;12362;50.004;8.006;2024-01-15T10:45:48;99312.31;;;2.07;100.00
24230;BME280;12362;50.004;8.006;2024-01-15T10:48:14;99305.94;;;2.45;100.00
24230;BME280;12362;50.004;8.006;2024-01-15T10:50:40;99303.34;;;2.93;100.00
24230;BME280;12362;50.004;8.006;2024-01-15T10:53:06;99297.38;;;3.16;100.00
24230;BME280;12362;50.004;8.006;2024-01-15T10:55:35;99296.56;;;2.92;100.00
24230;BME280;12362;50.004;8.006;2024-01-15T11:01:24;99278.94;;;3.29;100.00
24230;BME280;12362;50.004;8.006;2024-01-15T11:04:32;99294.19;;;3.09;100.00
24230;BME280;12362;50.004;8.006;2024-01-15T11:06:57;99284.00;;;2.85;100.00
24230;BME280;12362;50.004;8.006;2024-01-15T11:09:23;99279.22;;;2.99;100.00
24230;BME280;12362;50.004;8.006;2024-01-15T11:11:52;99269.69;;;3.02;100.00
24230;BME280;12362;50.004;8.006;2024-01-15T11:15:00;99266.47;;;3.42;100.00
24230;BME280;12362;50.004;8.006;2024-01-15T11:17:26;99263.50;;;3.52;100.00
24230;BME280;12362;50.004;8.006;2024-01-15T11:19:52;99265.28;;;3.50;100.00
24230;BME280;12362;50.004;8.006;2024-01-15T11:27:51;99267.44;;;3.39;100.00
24230;BME280;12362;50.004;8.006;2024-01-15T11:30:17;99262.97;;;3.21;100.00
24230;BME280;12362;50.004;8.006;2024-01-15T11:32:45;99275.38;;;3.10;100.00
24230;BME280;12362;50.004;8.006;2024-01-15T11:35:12;99269.47;;;2.85;100.00
24230;BME280;12362;50.004;8.006;2024-01-15T11:40:18;99259.16;;;2.87;100.00
24230;BME280;12362;50.004;8.006;2024-01-15T11:42:47;99256.50;;;2.90;100.00
24230;BME280;12362;50.004;8.006;2024-01-15T11:45:19;99262.09;;;2.76;100.00
24230;BME280;12362;50.004;8.006;2024-01-15T11:50:50;99262.78;;;2.81;100.00
24230;BME280;12362;50.004;8.006;2024-01-15T11:53:44;99262.34;;;2.93;100.00
24230;BME280;12362;50.004;8.006;2024-01-15T11:56:17;99257.94;;;2.97;100.00
24230;BME280;12362;50.004;8.006;2024-01-15T11:58:44;99259.97;;;3.10;100.00
24230;BME280;12362;50.004;8.006;2024-01-15T12:01:11;99265.97;;;3.11;100.00
24230;BME280;12362;50.004;8.006;2024-01-15T12:03:36;99257.03;;;3.21;100.00
24230;BME280;12362;50.004;8.006;2024-01-15T12:06:02;99267.41;;;3.18;100.00
24230;BME280;12362;50.004;8.006;2024-01-15T12:08:30;99276.31;;;3.08;100.00
24230;BME280;12362;50.004;8.006;2024-01-15T12:10:56;99262.88;;;3.01;100.00
24230;BME280;12362;50.004;8.006;2024-01-15T12:13:22;99275.38;;;3.10;100.00
24230;BME280;12362;50.004;8.006;2024-01-15T12:15:48;99268.97;;;2.99;100.00
24230;BME280;12362;50.004;8.006;2024-01-15T12:18:18;99270.66;;;3.00;100.00
24230;BME280;12362;50.004;8.006;2024-01-15T12:20:45;99262.06;;;3.01;100.00
24230;BME280;12362;50.004;8.006;2024-01-15T12:23:13;99271.19;;;3.08;100.00
24230;BME280;12362;50.004;8.006;2024-01-15T12:25:39;99264.19;;;3.13;100.00
24230;BME280;12362;50.004;8.006;2024-01-15T12:28:05;99262.28;;;2.95;100.00
24230;BME280;12362;50.004;8.006;2024-01-15T12:30:33;99262.00;;;3.02;100.00
24230;BME280;12362;50.004;8.006;2024-01-15T12:33:01;99266.25;;;3.03;100.00
24230;BME280;12362;50.004;8.006;2024-01-15T12:35:29;99260.06;;;3.09;100.00
24230;BME280;12362;50.004;8.006;2024-01-15T12:37:59;99251.28;;;3.14;100.00
24230;BME280;12362;50.004;8.006;2024-01-15T12:40:27;99255.53;;;3.15;100.00
24230;BME280;12362;50.004;8.006;2024-01-15T12:42:53;99256.69;;;3.07;100.00
24230;BME280;12362;50.004;8.006;2024-01-15T12:45:18;99253.75;;;3.17;100.00
24230;BME280;12362;50.004;8.006;2024-01-15T12:47:45;99261.47;;;3.16;100.00
24230;BME280;12362;50.004;8.006;2024-01-15T12:50:12;99257.53;;;3.30;100.00
24230;BME280;12362;50.004;8.006;2024-01-15T12:52:40;99256.97;;;3.22;100.00
24230;BME280;12362;50.004;8.006;2024-01-15T12:55:07;99261.03;;;3.28;100.00
24230;BME280;12362;50.004;8.006;2024-01-15T12:57:39;99269.56;;;3.28;100.00
24230;BME280;12362;50.004;8.006;2024-01-15T13:00:05;99271.34;;;3.26;100.00
24230;BME280;12362;50.004;8.006;2024-01-15T13:02:33;99265.34;;;3.27;100.00
24230;BME280;12362;50.004;8.006;2024-01-15T13:04:59;99270.28;;;3.32;100.00
24230;BME280;12362;50.004;8.006;2024-01-15T13:07:25;99265.25;;;3.29;100.00